createdAt,value
2018-12-10T00:00:00.933Z,6.58
2018-12-10T00:02:27.736Z,6.53
2018-12-10T00:04:54.488Z,6.55
2018-12-10T00:07:21.268Z,6.53
2018-12-10T00:09:48.075Z,6.50
2018-12-10T00:12:14.852Z,6.53
2018-12-10T00:14:41.649Z,6.58
2018-12-10T00:17:08.429Z,6.68
2018-12-10T00:19:35.192Z,6.74
2018-12-10T00:22:01.970Z,6.79
2018-12-10T00:24:28.720Z,6.78
2018-12-10T00:26:55.497Z,6.80
2018-12-10T00:29:22.268Z,6.77
2018-12-10T00:31:49.044Z,6.73
2018-12-10T00:34:15.793Z,6.73
2018-12-10T00:36:42.584Z,6.72
2018-12-10T00:39:09.377Z,6.75
2018-12-10T00:41:36.130Z,6.68
2018-12-10T00:44:03.011Z,6.65
2018-12-10T00:46:29.847Z,6.71
2018-12-10T00:48:56.648Z,6.64
2018-12-10T00:51:23.384Z,6.67
2018-12-10T00:53:50.178Z,6.71
2018-12-10T00:56:16.933Z,6.74
2018-12-10T00:58:43.707Z,6.67
2018-12-10T01:01:10.508Z,6.60
2018-12-10T01:03:37.277Z,6.54
2018-12-10T01:06:04.034Z,6.52
2018-12-10T01:08:30.808Z,6.43
2018-12-10T01:10:57.603Z,6.45
2018-12-10T01:13:24.573Z,6.39
2018-12-10T01:15:51.357Z,6.32
2018-12-10T01:18:18.128Z,6.32
2018-12-10T01:20:44.888Z,6.28
2018-12-10T01:23:11.672Z,6.27
2018-12-10T01:25:38.434Z,6.25
2018-12-10T01:28:05.227Z,6.27
2018-12-10T01:30:31.972Z,6.22
2018-12-10T01:32:58.744Z,6.24
2018-12-10T01:35:25.496Z,6.22
2018-12-10T01:37:52.268Z,6.13
2018-12-10T01:40:19.039Z,6.13
2018-12-10T01:42:45.812Z,6.18
2018-12-10T01:45:12.564Z,6.09
2018-12-10T01:47:39.332Z,6.11
2018-12-10T01:50:06.088Z,6.12
2018-12-10T01:52:32.868Z,6.11
2018-12-10T01:54:59.640Z,6.17
2018-12-10T01:57:26.416Z,6.16
2018-12-10T01:59:53.172Z,6.14
2018-12-10T02:02:19.952Z,6.18
2018-12-10T02:04:46.700Z,6.19
2018-12-10T02:07:13.529Z,6.21
2018-12-10T02:09:40.236Z,6.15
2018-12-10T02:12:07.004Z,6.17
2018-12-10T02:14:33.842Z,6.11
2018-12-10T02:17:00.528Z,6.15
2018-12-10T02:19:27.308Z,6.11
2018-12-10T02:21:54.064Z,6.16
2018-12-10T02:24:20.937Z,6.16
2018-12-10T02:26:47.696Z,6.16
2018-12-10T02:29:14.877Z,6.13
2018-12-10T02:31:42.237Z,6.11
2018-12-10T02:34:09.017Z,6.13
2018-12-10T02:36:35.763Z,6.13
2018-12-10T02:39:02.634Z,6.13
2018-12-10T02:41:29.384Z,6.12
2018-12-10T02:43:56.169Z,6.14
2018-12-10T02:46:22.943Z,6.14
2018-12-10T02:48:49.712Z,6.19
2018-12-10T02:51:16.477Z,6.11
2018-12-10T02:53:43.247Z,6.11
2018-12-10T02:56:10.016Z,6.13
2018-12-10T02:58:36.780Z,6.12
2018-12-10T03:01:03.528Z,6.08
2018-12-10T03:03:30.296Z,6.13
2018-12-10T03:05:57.057Z,6.13
2018-12-10T03:08:23.825Z,6.18
2018-12-10T03:10:50.700Z,6.18
2018-12-10T03:13:17.469Z,6.16
2018-12-10T03:15:44.224Z,6.16
2018-12-10T03:18:10.997Z,6.14
2018-12-10T03:20:37.771Z,6.14
2018-12-10T03:23:04.533Z,6.13
2018-12-10T03:25:31.301Z,6.17
2018-12-10T03:27:58.101Z,6.07
2018-12-10T03:30:24.982Z,6.07
2018-12-10T03:32:51.766Z,6.02
2018-12-10T03:35:18.521Z,5.93
2018-12-10T03:37:45.308Z,5.89
2018-12-10T03:40:12.068Z,5.83
2018-12-10T03:42:38.840Z,5.80
2018-12-10T03:45:05.599Z,5.66
2018-12-10T03:47:32.392Z,5.42
2018-12-10T03:49:59.152Z,5.28
2018-12-10T03:52:25.920Z,5.09
2018-12-10T03:54:52.668Z,4.91
2018-12-10T03:57:19.436Z,4.67
2018-12-10T03:59:46.184Z,4.74
2018-12-10T04:02:12.961Z,4.90
2018-12-10T04:04:39.712Z,4.88
2018-12-10T04:07:06.480Z,4.89
2018-12-10T04:09:33.226Z,4.91
2018-12-10T04:11:59.991Z,4.79
2018-12-10T04:14:26.758Z,4.78
2018-12-10T04:16:53.528Z,4.82
2018-12-10T04:19:20.285Z,4.83
2018-12-10T04:21:47.088Z,4.80
2018-12-10T04:24:13.852Z,4.66
2018-12-10T04:26:40.597Z,4.66
2018-12-10T04:29:07.372Z,4.67
2018-12-10T04:31:36.294Z,4.66
2018-12-10T04:34:01.020Z,4.60
2018-12-10T04:36:27.768Z,4.51
2018-12-10T04:38:54.626Z,4.44
2018-12-10T04:41:21.369Z,4.40
2018-12-10T04:43:48.177Z,4.35
2018-12-10T04:46:14.927Z,4.36
2018-12-10T04:48:41.692Z,4.43
2018-12-10T04:51:08.429Z,4.62
2018-12-10T04:53:35.204Z,4.57
2018-12-10T04:56:01.953Z,4.52
2018-12-10T04:58:28.712Z,4.57
2018-12-10T05:00:55.465Z,4.54
2018-12-10T05:03:22.228Z,4.57
2018-12-10T05:05:49.020Z,4.58
2018-12-10T05:08:15.859Z,4.54
2018-12-10T05:10:42.639Z,4.61
2018-12-10T05:13:09.396Z,4.65
2018-12-10T05:15:36.148Z,4.67
2018-12-10T05:18:02.924Z,4.69
2018-12-10T05:20:29.724Z,4.73
2018-12-10T05:22:56.496Z,4.81
2018-12-10T05:25:23.256Z,4.86
2018-12-10T05:27:50.016Z,4.86
2018-12-10T05:30:16.764Z,4.90
2018-12-10T05:32:43.624Z,4.98
2018-12-10T05:35:10.447Z,5.09
2018-12-10T05:37:37.293Z,5.17
2018-12-10T05:40:04.412Z,5.14
2018-12-10T05:42:31.172Z,5.13
2018-12-10T05:44:58.195Z,5.13
2018-12-10T05:47:25.198Z,5.22
2018-12-10T05:49:52.005Z,5.10
2018-12-10T05:52:18.761Z,5.04
2018-12-10T05:54:45.596Z,5.03
2018-12-10T05:57:12.398Z,5.00
2018-12-10T05:59:39.371Z,5.05
2018-12-10T06:02:06.109Z,5.09
2018-12-10T06:04:32.877Z,5.02
2018-12-10T06:06:59.632Z,5.01
2018-12-10T06:09:26.412Z,4.99
2018-12-10T06:11:53.190Z,4.94
2018-12-10T06:14:19.958Z,4.96
2018-12-10T06:16:46.724Z,5.01
2018-12-10T06:19:13.498Z,5.03
2018-12-10T06:21:40.248Z,5.01
2018-12-10T06:24:07.028Z,4.96
2018-12-10T06:26:33.801Z,4.96
2018-12-10T06:29:00.575Z,4.99
2018-12-10T06:31:27.324Z,4.97
2018-12-10T06:33:54.116Z,4.98
2018-12-10T06:36:20.865Z,4.97
2018-12-10T06:38:47.629Z,4.97
2018-12-10T06:41:14.394Z,4.93
2018-12-10T06:43:41.193Z,4.98
2018-12-10T06:46:07.953Z,5.00
2018-12-10T06:48:34.741Z,5.01
2018-12-10T06:51:01.500Z,5.27
2018-12-10T06:53:28.288Z,5.50
2018-12-10T06:55:55.060Z,5.18
2018-12-10T06:58:21.828Z,5.42
2018-12-10T07:00:48.604Z,5.49
2018-12-10T07:03:15.358Z,5.61
2018-12-10T07:05:42.140Z,5.58
2018-12-10T07:08:08.888Z,5.53
2018-12-10T07:10:35.656Z,5.63
2018-12-10T07:13:02.418Z,5.60
2018-12-10T07:15:29.207Z,5.59
2018-12-10T07:17:55.955Z,5.46
2018-12-10T07:20:22.733Z,5.40
2018-12-10T07:22:49.501Z,5.48
2018-12-10T07:25:16.285Z,6.04
2018-12-10T07:27:43.047Z,5.65
2018-12-10T07:30:09.825Z,5.65
2018-12-10T07:32:36.592Z,5.66
2018-12-10T07:35:03.492Z,5.81
2018-12-10T07:37:30.252Z,5.79
2018-12-10T07:39:57.041Z,5.78
2018-12-10T07:42:23.808Z,5.78
2018-12-10T07:44:50.633Z,5.66
2018-12-10T07:47:17.388Z,5.60
2018-12-10T07:49:44.179Z,5.63
2018-12-10T07:52:10.940Z,5.99
2018-12-10T07:54:37.772Z,5.77
2018-12-10T07:57:04.532Z,5.71
2018-12-10T07:59:31.304Z,5.76
2018-12-10T08:01:58.048Z,5.73
2018-12-10T08:04:24.860Z,5.90
2018-12-10T08:06:51.617Z,5.70
2018-12-10T08:09:18.405Z,5.69
2018-12-10T08:11:45.170Z,6.25
2018-12-10T08:14:11.961Z,5.87
2018-12-10T08:16:38.717Z,5.89
2018-12-10T08:19:05.495Z,5.83
2018-12-10T08:21:32.299Z,5.83
2018-12-10T08:23:59.008Z,5.91
2018-12-10T08:26:25.778Z,5.78
2018-12-10T08:31:19.318Z,6.06
2018-12-10T08:33:46.152Z,5.96
2018-12-10T08:35:46.103Z,5.69
2018-12-10T08:36:12.912Z,6.18
2018-12-10T08:38:39.684Z,6.35
2018-12-10T08:41:06.461Z,6.44
2018-12-10T08:43:33.224Z,6.25
2018-12-10T08:46:00.001Z,6.35
2018-12-10T08:48:26.768Z,6.27
2018-12-10T08:50:53.548Z,6.18
2018-12-10T08:53:20.309Z,6.27
2018-12-10T08:55:47.838Z,6.30
2018-12-10T08:58:14.598Z,6.35
2018-12-10T09:00:41.393Z,6.63
2018-12-10T09:03:08.172Z,6.60
2018-12-10T09:05:34.957Z,6.69
2018-12-10T09:08:01.715Z,6.78
2018-12-10T09:10:28.589Z,6.59
2018-12-10T09:12:55.256Z,6.51
2018-12-10T09:15:22.042Z,6.31
2018-12-10T09:17:48.792Z,6.92
2018-12-10T09:20:15.568Z,6.67
2018-12-10T09:22:42.324Z,6.58
2018-12-10T09:25:09.117Z,6.78
2018-12-10T09:27:35.980Z,6.80
2018-12-10T09:30:02.773Z,7.44
2018-12-10T09:32:29.528Z,7.17
2018-12-10T09:34:56.300Z,7.00
2018-12-10T09:37:23.057Z,7.29
2018-12-10T09:39:49.835Z,7.21
2018-12-10T09:42:16.585Z,7.45
2018-12-10T09:44:43.365Z,7.60
2018-12-10T09:47:10.152Z,7.38
2018-12-10T09:49:36.940Z,6.84
2018-12-10T09:52:03.718Z,6.73
2018-12-10T09:54:30.484Z,6.74
2018-12-10T09:56:57.252Z,6.69
2018-12-10T09:59:24.036Z,6.68
2018-12-10T10:01:50.784Z,6.75
2018-12-10T10:04:17.584Z,6.82
2018-12-10T10:06:44.341Z,6.85
2018-12-10T10:09:11.125Z,7.19
2018-12-10T10:11:37.911Z,7.45
2018-12-10T10:14:04.672Z,7.43
2018-12-10T10:16:31.476Z,7.51
2018-12-10T10:18:58.234Z,7.58
2018-12-10T10:21:25.136Z,7.41
2018-12-10T10:23:51.896Z,7.69
2018-12-10T10:26:18.676Z,7.64
2018-12-10T10:28:45.464Z,7.45
2018-12-10T10:31:12.236Z,7.36
2018-12-10T10:33:38.997Z,7.38
2018-12-10T10:36:05.778Z,7.23
2018-12-10T10:38:32.528Z,7.24
2018-12-10T10:40:59.292Z,7.50
2018-12-10T10:43:26.036Z,7.26
2018-12-10T10:45:52.808Z,7.22
2018-12-10T10:48:19.558Z,7.15
2018-12-10T10:50:46.340Z,7.32
2018-12-10T10:53:13.101Z,7.35
2018-12-10T10:55:39.936Z,7.34
2018-12-10T10:58:06.703Z,7.41
2018-12-10T11:00:39.144Z,7.55
2018-12-10T11:03:25.531Z,7.52
2018-12-10T11:05:52.309Z,7.70
2018-12-10T11:08:19.072Z,7.79
2018-12-10T11:10:45.848Z,7.74
2018-12-10T11:13:12.597Z,7.60
2018-12-10T11:15:39.372Z,7.50
2018-12-10T11:18:06.133Z,7.57
2018-12-10T11:20:32.936Z,7.58
2018-12-10T11:22:59.692Z,7.46
2018-12-10T11:25:26.481Z,7.44
2018-12-10T11:27:53.256Z,7.48
2018-12-10T11:30:20.024Z,7.50
2018-12-10T11:32:46.779Z,7.68
2018-12-10T11:35:13.558Z,7.54
2018-12-10T11:37:40.316Z,7.55
2018-12-10T11:40:07.116Z,7.48
2018-12-10T11:42:33.876Z,7.51
2018-12-10T11:45:00.677Z,7.45
2018-12-10T11:47:27.432Z,7.43
2018-12-10T11:49:54.237Z,7.52
2018-12-10T11:52:21.060Z,7.38
2018-12-10T11:54:47.985Z,7.23
2018-12-10T11:57:14.608Z,7.20
2018-12-10T11:59:41.385Z,7.36
2018-12-10T12:02:08.181Z,7.52
2018-12-10T12:04:34.948Z,7.61
2018-12-10T12:07:01.728Z,7.49
2018-12-10T12:09:28.497Z,7.57
2018-12-10T12:11:55.372Z,7.61
2018-12-10T12:14:22.194Z,7.67
2018-12-10T12:16:48.975Z,7.74
2018-12-10T12:19:15.731Z,7.78
2018-12-10T12:21:42.504Z,7.72
2018-12-10T12:24:09.268Z,7.59
2018-12-10T12:26:36.042Z,7.63
2018-12-10T12:29:02.796Z,7.77
2018-12-10T12:31:29.576Z,7.95
2018-12-10T12:33:56.369Z,7.85
2018-12-10T12:36:23.144Z,7.79
2018-12-10T12:38:49.900Z,7.89
2018-12-10T12:41:16.677Z,7.92
2018-12-10T12:43:43.432Z,7.96
2018-12-10T12:46:10.212Z,7.77
2018-12-10T12:48:36.982Z,7.82
2018-12-10T12:51:03.765Z,8.09
2018-12-10T12:53:30.593Z,7.99
2018-12-10T12:55:57.392Z,7.95
2018-12-10T12:58:24.154Z,7.90
2018-12-10T13:00:50.916Z,7.92
2018-12-10T13:03:17.684Z,7.93
2018-12-10T13:05:44.457Z,7.95
2018-12-10T13:08:11.217Z,8.12
2018-12-10T13:10:38.000Z,8.34
2018-12-10T13:13:04.752Z,8.13
2018-12-10T13:15:31.542Z,8.18
2018-12-10T13:17:58.294Z,8.41
2018-12-10T13:20:25.069Z,8.43
2018-12-10T13:22:51.877Z,8.31
2018-12-10T13:25:18.655Z,8.38
2018-12-10T13:27:45.434Z,8.31
2018-12-10T13:30:12.201Z,8.33
2018-12-10T13:32:39.163Z,8.43
2018-12-10T13:35:05.832Z,8.49
2018-12-10T13:37:32.596Z,8.31
2018-12-10T13:39:59.377Z,8.04
2018-12-10T13:42:26.154Z,8.01
2018-12-10T13:44:52.920Z,7.95
2018-12-10T13:47:19.685Z,7.92
2018-12-10T13:49:46.441Z,7.98
2018-12-10T13:52:13.225Z,7.99
2018-12-10T13:54:39.986Z,7.92
2018-12-10T13:57:06.776Z,7.95
2018-12-10T13:59:33.540Z,8.00
2018-12-10T14:02:00.329Z,7.94
2018-12-10T14:04:32.130Z,7.76
2018-12-10T14:06:58.928Z,7.73
2018-12-10T14:09:25.694Z,7.76
2018-12-10T14:11:52.472Z,7.75
2018-12-10T14:14:19.230Z,7.60
2018-12-10T14:16:46.000Z,7.55
2018-12-10T14:19:12.768Z,7.49
2018-12-10T14:21:39.571Z,7.45
2018-12-10T14:24:06.336Z,7.48
2018-12-10T14:26:33.112Z,7.44
2018-12-10T14:28:59.872Z,7.46
2018-12-10T14:31:27.453Z,7.42
2018-12-10T14:33:53.416Z,7.36
2018-12-10T14:36:20.208Z,7.40
2018-12-10T14:38:47.097Z,7.44
2018-12-10T14:41:13.745Z,7.42
2018-12-10T14:43:40.524Z,7.46
2018-12-10T14:46:07.296Z,7.34
2018-12-10T14:48:34.052Z,7.21
2018-12-10T14:51:00.872Z,7.19
2018-12-10T14:53:27.632Z,7.20
2018-12-10T14:55:55.412Z,7.19
2018-12-10T14:58:22.164Z,7.24
2018-12-10T15:00:48.961Z,7.28
2018-12-10T15:03:15.709Z,7.19
2018-12-10T15:05:42.487Z,7.04
2018-12-10T15:08:09.285Z,6.97
2018-12-10T15:10:36.060Z,6.85
2018-12-10T15:13:02.812Z,6.83
2018-12-10T15:15:29.740Z,6.76
2018-12-10T15:17:56.335Z,6.72
2018-12-10T15:20:23.112Z,6.67
2018-12-10T15:22:49.944Z,6.68
2018-12-10T15:25:16.732Z,6.63
2018-12-10T15:27:43.508Z,6.69
2018-12-10T15:30:11.242Z,6.62
2018-12-10T15:32:38.180Z,6.75
2018-12-10T15:35:05.120Z,6.62
2018-12-10T15:37:32.034Z,6.63
2018-12-10T15:39:58.781Z,6.62
2018-12-10T15:42:25.599Z,6.49
2018-12-10T15:44:52.729Z,6.35
2018-12-10T15:47:19.273Z,6.24
2018-12-10T15:49:46.016Z,6.16
2018-12-10T15:52:12.900Z,6.17
2018-12-10T15:54:39.650Z,6.45
2018-12-10T15:57:06.416Z,6.55
2018-12-10T15:59:33.176Z,6.68
2018-12-10T16:02:00.029Z,6.64
2018-12-10T16:04:26.786Z,6.68
2018-12-10T16:06:53.609Z,6.65
2018-12-10T16:09:20.365Z,6.52
2018-12-10T16:11:47.140Z,6.61
2018-12-10T16:14:13.945Z,6.52
2018-12-10T16:16:40.768Z,6.52
2018-12-10T16:19:07.540Z,6.44
2018-12-10T16:21:34.312Z,6.77
2018-12-10T16:24:01.064Z,6.65
2018-12-10T16:26:27.856Z,6.16
2018-12-10T16:28:54.609Z,5.98
2018-12-10T16:31:21.384Z,5.94
2018-12-10T16:33:48.232Z,5.90
2018-12-10T16:36:14.996Z,5.94
2018-12-10T16:38:41.808Z,5.97
2018-12-10T16:41:08.525Z,5.91
2018-12-10T16:43:35.301Z,5.91
2018-12-10T16:46:02.079Z,5.97
2018-12-10T16:48:29.020Z,5.93
2018-12-10T16:50:55.777Z,5.89
2018-12-10T16:53:22.604Z,5.92
2018-12-10T16:55:49.364Z,5.90
2018-12-10T16:58:16.142Z,5.93
2018-12-10T17:00:42.889Z,5.96
2018-12-10T17:03:09.753Z,5.88
2018-12-10T17:05:36.497Z,5.90
2018-12-10T17:08:03.273Z,5.91
2018-12-10T17:10:30.023Z,5.96
2018-12-10T17:12:56.808Z,5.87
2018-12-10T17:15:23.560Z,5.88
2018-12-10T17:17:50.460Z,5.97
2018-12-10T17:20:17.108Z,6.04
2018-12-10T17:22:43.878Z,6.09
2018-12-10T17:25:10.629Z,6.12
2018-12-10T17:27:37.427Z,6.08
2018-12-10T17:30:04.720Z,6.10
2018-12-10T17:32:31.560Z,6.04
2018-12-10T17:34:58.356Z,6.13
2018-12-10T17:37:25.132Z,6.12
2018-12-10T17:39:51.880Z,6.08
2018-12-10T17:42:18.679Z,6.14
2018-12-10T17:44:45.437Z,6.31
2018-12-10T17:47:12.205Z,6.30
2018-12-10T17:49:38.957Z,6.28
2018-12-10T17:52:05.742Z,6.29
2018-12-10T17:54:32.487Z,6.21
2018-12-10T17:56:59.272Z,6.19
2018-12-10T17:59:26.084Z,6.27
2018-12-10T18:01:52.874Z,6.30
2018-12-10T18:04:19.672Z,6.25
2018-12-10T18:06:46.460Z,6.28
2018-12-10T18:09:13.208Z,6.31
2018-12-10T18:11:39.993Z,6.29
2018-12-10T18:14:06.745Z,6.30
2018-12-10T18:16:33.640Z,6.32
2018-12-10T18:19:00.405Z,6.34
2018-12-10T18:21:27.190Z,6.01
2018-12-10T18:23:53.972Z,5.76
2018-12-10T18:26:20.745Z,5.45
2018-12-10T18:28:47.512Z,5.18
2018-12-10T18:31:14.265Z,5.09
2018-12-10T18:33:41.051Z,5.17
2018-12-10T18:36:07.808Z,5.16
2018-12-10T18:38:34.738Z,5.19
2018-12-10T18:41:01.492Z,5.22
2018-12-10T18:43:28.256Z,5.24
2018-12-10T18:45:55.065Z,5.10
2018-12-10T18:48:21.829Z,5.00
2018-12-10T18:50:48.591Z,5.02
2018-12-10T18:53:15.412Z,5.03
2018-12-10T18:55:42.233Z,4.95
2018-12-10T18:58:09.004Z,5.00
2018-12-10T19:00:35.760Z,5.07
2018-12-10T19:03:02.572Z,5.22
2018-12-10T19:05:29.316Z,5.05
2018-12-10T19:07:56.180Z,4.93
2018-12-10T19:10:22.954Z,5.12
2018-12-10T19:12:49.745Z,4.99
2018-12-10T19:15:16.495Z,4.77
2018-12-10T19:17:43.289Z,4.98
2018-12-10T19:20:13.554Z,4.82
2018-12-10T19:22:36.805Z,4.65
2018-12-10T19:25:03.774Z,4.62
2018-12-10T19:27:30.541Z,4.59
2018-12-10T19:29:57.294Z,4.64
2018-12-10T19:32:24.053Z,4.57
2018-12-10T19:34:50.825Z,4.49
2018-12-10T19:37:17.599Z,4.47
2018-12-10T19:39:44.352Z,4.52
2018-12-10T19:42:11.146Z,4.81
2018-12-10T19:44:37.898Z,4.50
2018-12-10T19:47:04.675Z,4.46
2018-12-10T19:49:31.444Z,4.67
2018-12-10T19:51:58.228Z,4.88
2018-12-10T19:54:25.075Z,4.72
2018-12-10T19:56:51.832Z,4.80
2018-12-10T19:59:18.584Z,4.74
2018-12-10T20:01:45.352Z,4.93
2018-12-10T20:04:12.115Z,5.13
2018-12-10T20:06:44.508Z,5.04
2018-12-10T20:09:11.248Z,5.56
2018-12-10T20:11:38.013Z,5.34
2018-12-10T20:14:04.776Z,5.31
2018-12-10T20:16:31.592Z,5.19
2018-12-10T20:18:58.340Z,5.17
2018-12-10T20:21:25.116Z,5.20
2018-12-10T20:23:51.858Z,5.15
2018-12-10T20:26:18.623Z,5.16
2018-12-10T20:28:45.410Z,5.00
2018-12-10T20:31:12.173Z,4.89
2018-12-10T20:33:38.969Z,4.91
2018-12-10T20:36:05.723Z,4.87
2018-12-10T20:38:32.601Z,4.90
2018-12-10T20:40:59.341Z,4.92
2018-12-10T20:43:26.188Z,4.55
2018-12-10T20:45:52.859Z,4.32
2018-12-10T20:48:19.660Z,4.17
2018-12-10T20:50:46.409Z,4.12
2018-12-10T20:53:13.168Z,3.95
2018-12-10T20:55:39.914Z,3.85
2018-12-10T20:58:06.673Z,3.87
2018-12-10T21:00:33.422Z,3.78
2018-12-10T21:03:00.196Z,3.78
2018-12-10T21:05:26.968Z,3.86
2018-12-10T21:07:53.727Z,3.73
2018-12-10T21:10:20.489Z,3.74
2018-12-10T21:12:47.280Z,3.74
2018-12-10T21:15:14.008Z,3.67
2018-12-10T21:17:40.778Z,3.62
2018-12-10T21:20:07.529Z,3.54
2018-12-10T21:22:34.320Z,3.49
2018-12-10T21:25:01.102Z,3.54
2018-12-10T21:27:27.872Z,3.52
2018-12-10T21:29:54.635Z,3.67
2018-12-10T21:32:21.388Z,3.83
2018-12-10T21:34:48.156Z,3.95
2018-12-10T21:37:14.924Z,3.91
2018-12-10T21:39:41.677Z,3.90
2018-12-10T21:42:08.444Z,3.91
2018-12-10T21:44:35.184Z,3.91
2018-12-10T21:47:01.952Z,3.67
2018-12-10T21:49:28.694Z,3.44
2018-12-10T21:51:55.528Z,3.36
2018-12-10T21:54:22.291Z,3.35
2018-12-10T21:56:49.044Z,3.40
2018-12-10T21:59:15.832Z,3.45
2018-12-10T22:01:42.577Z,3.44
2018-12-10T22:04:09.359Z,3.43
2018-12-10T22:06:36.104Z,3.69
2018-12-10T22:09:03.912Z,3.78
2018-12-10T22:11:30.652Z,3.60
2018-12-10T22:13:57.424Z,3.47
2018-12-10T22:16:24.186Z,3.64
2018-12-10T22:18:50.940Z,3.81
2018-12-10T22:21:17.685Z,3.69
2018-12-10T22:23:44.464Z,3.60
2018-12-10T22:26:11.223Z,3.71
2018-12-10T22:28:37.986Z,4.22
2018-12-10T22:31:04.728Z,3.82
2018-12-10T22:33:31.560Z,3.78
2018-12-10T22:35:58.304Z,3.53
2018-12-10T22:38:25.067Z,3.69
2018-12-10T22:40:51.817Z,3.63
2018-12-10T22:43:18.580Z,3.35
2018-12-10T22:45:45.324Z,3.54
2018-12-10T22:48:12.092Z,3.60
2018-12-10T22:50:38.840Z,3.51
2018-12-10T22:53:05.605Z,3.29
2018-12-10T22:55:32.354Z,3.25
2018-12-10T22:57:59.113Z,3.14
2018-12-10T23:00:31.468Z,3.05
2018-12-10T23:02:58.228Z,3.04
2018-12-10T23:05:24.972Z,3.03
2018-12-10T23:07:51.742Z,3.09
2018-12-10T23:10:18.485Z,3.33
2018-12-10T23:12:45.235Z,3.50
2018-12-10T23:15:12.008Z,3.58
2018-12-10T23:17:38.776Z,3.60
2018-12-10T23:20:06.394Z,3.51
2018-12-10T23:22:33.194Z,3.57
2018-12-10T23:24:59.968Z,3.64
2018-12-10T23:27:26.717Z,3.91
2018-12-10T23:29:53.520Z,3.64
2018-12-10T23:32:20.328Z,3.55
2018-12-10T23:34:47.105Z,3.44
2018-12-10T23:37:13.859Z,3.35
2018-12-10T23:39:40.652Z,3.68
2018-12-10T23:42:07.421Z,3.43
2018-12-10T23:44:40.075Z,3.42
2018-12-10T23:47:06.826Z,3.13
2018-12-10T23:49:33.604Z,3.12
2018-12-10T23:52:00.343Z,3.29
2018-12-10T23:54:27.118Z,3.44
2018-12-10T23:56:53.872Z,3.45
2018-12-10T23:59:20.628Z,3.48
